createdAt,value
2022-11-20T12:49:40.611Z,73.05
2022-11-20T12:51:40.579Z,70.15
2022-11-20T12:52:40.835Z,71.85
2022-11-20T12:53:40.589Z,70.43
2022-11-20T12:54:40.589Z,68.25
2022-11-20T12:55:40.624Z,68.95
2022-11-20T12:56:40.876Z,68.66
2022-11-20T12:57:40.636Z,65.85
2022-11-20T12:58:40.640Z,66.04
2022-11-20T12:59:40.882Z,64.37
2022-11-20T13:00:40.906Z,58.61
2022-11-20T13:01:41.131Z,57.21
2022-11-20T13:02:40.677Z,57.78
2022-11-20T13:03:40.739Z,57.02
2022-11-20T13:04:40.705Z,57.59
2022-11-20T13:05:40.711Z,55.59
2022-11-20T13:06:40.734Z,55.43
2022-11-20T13:07:40.856Z,54.29
2022-11-20T13:08:40.736Z,52.32
2022-11-20T13:09:40.749Z,52.32
2022-11-20T13:10:40.794Z,52.51
2022-11-20T13:11:40.794Z,52.48
2022-11-20T13:12:41.252Z,54.74
2022-11-20T13:13:40.813Z,56.8
2022-11-20T13:14:41.010Z,59.97
2022-11-20T13:15:41.073Z,62.31
2022-11-20T13:16:40.821Z,64.65
2022-11-20T13:17:40.854Z,66.22
2022-11-20T13:18:41.093Z,68.08
2022-11-20T13:19:41.737Z,70.83
2022-11-20T13:20:41.002Z,71.88
2022-11-20T13:21:40.889Z,73.26
2022-11-20T13:22:40.873Z,74.58
2022-11-20T13:23:41.727Z,75.15
2022-11-20T13:24:41.107Z,75.62
2022-11-20T13:25:40.921Z,76.15
2022-11-20T13:26:41.164Z,76.25
2022-11-20T13:27:41.767Z,76.53
2022-11-20T13:28:40.906Z,76.72
2022-11-20T13:29:40.941Z,77.2
2022-11-20T13:30:41.203Z,77.86
2022-11-20T13:31:41.237Z,76.82
2022-11-20T13:32:41.182Z,76.44
2022-11-20T13:33:40.956Z,76.15
2022-11-20T13:34:41.202Z,76.91
2022-11-20T13:35:41.205Z,77.76
2022-11-20T13:36:40.985Z,77.44
2022-11-20T13:37:41.169Z,77.76
2022-11-20T13:38:40.965Z,77.82
2022-11-20T13:39:40.981Z,78.39
2022-11-20T13:40:41.821Z,78.95
2022-11-20T13:41:41.589Z,79.43
2022-11-20T13:42:40.986Z,78.76
2022-11-20T13:43:40.985Z,78.95
2022-11-20T13:44:40.969Z,79.9
2022-11-20T13:45:41.234Z,80.65
2022-11-20T13:46:40.983Z,80.94
